Time;durP1;ratioP1;P1;durP2;ratioP2;P2;SDS_P1;SDS_P2;PMS_P1;PMS_P2;Temp;Humidity;BMP_temperature;BMP_pressure;BME280_temperature;BME280_humidity;BME280_pressure;Samples;Min_cycle;Max_cycle;Signal;HPM_P1;HPM_P2
2022/01/29 00:00:01;;;;;;;43.20;19.88;;;;;;;;;;5038870;28;20046;-63
2022/01/29 00:02:27;;;;;;;38.05;18.27;;;;;;;;;;4989399;28;20085;-63
2022/01/29 00:04:53;;;;;;;39.10;21.15;;;;;;;;;;5006072;28;20050;-63
2022/01/29 00:07:19;;;;;;;39.63;20.92;;;;;;;;;;5021976;28;20037;-63
2022/01/29 00:09:47;;;;;;;35.55;17.17;;;;;;;;;;5007730;28;20033;-63
2022/01/29 00:12:13;;;;;;;43.33;20.67;;;;;;;;;;5022934;28;20044;-63
2022/01/29 00:14:39;;;;;;;40.85;18.85;;;;;;;;;;5038878;28;20042;-62
2022/01/29 00:17:06;;;;;;;41.25;19.33;;;;;;;;;;5006087;28;20053;-63
2022/01/29 00:19:32;;;;;;;42.53;19.95;;;;;;;;;;5006922;28;20472;-63
2022/01/29 00:22:00;;;;;;;34.53;17.42;;;;;;;;;;5005659;28;20042;-63
2022/01/29 00:24:26;;;;;;;39.65;16.80;;;;;;;;;;5005831;28;20129;-62
2022/01/29 00:26:53;;;;;;;34.88;17.63;;;;;;;;;;5007172;28;20539;-62
2022/01/29 00:29:22;;;;;;;39.20;18.02;;;;;;;;;;5005303;28;20053;-62
2022/01/29 00:31:48;;;;;;;41.00;18.63;;;;;;;;;;5007190;28;20057;-63
2022/01/29 00:34:14;;;;;;;33.92;17.63;;;;;;;;;;5005401;28;20046;-62
2022/01/29 00:36:40;;;;;;;44.92;20.75;;;;;;;;;;5005827;28;20514;-62
2022/01/29 00:39:06;;;;;;;30.35;14.98;;;;;;;;;;5038650;28;20041;-62
2022/01/29 00:41:33;;;;;;;38.03;16.65;;;;;;;;;;4988641;28;20049;-62
2022/01/29 00:43:59;;;;;;;42.33;18.80;;;;;;;;;;5007330;28;20080;-62
2022/01/29 00:46:25;;;;;;;41.78;20.70;;;;;;;;;;5007056;28;20045;-62
2022/01/29 00:48:51;;;;;;;41.67;20.30;;;;;;;;;;5038426;28;20684;-63
2022/01/29 00:51:17;;;;;;;42.63;18.67;;;;;;;;;;5004912;28;20460;-62
2022/01/29 00:53:43;;;;;;;42.53;18.55;;;;;;;;;;5005312;28;20036;-62
2022/01/29 00:56:10;;;;;;;40.90;19.45;;;;;;;;;;4988970;28;20042;-62
2022/01/29 00:58:36;;;;;;;32.20;15.75;;;;;;;;;;5007033;28;20057;-62
2022/01/29 01:01:02;;;;;;;37.47;20.00;;;;;;;;;;4989006;28;20064;-62
2022/01/29 01:03:28;;;;;;;37.33;20.45;;;;;;;;;;5038926;28;20041;-62
2022/01/29 01:05:54;;;;;;;38.30;18.60;;;;;;;;;;5006145;28;20480;-63
2022/01/29 01:08:20;;;;;;;36.72;18.52;;;;;;;;;;5006786;28;20123;-63
2022/01/29 01:10:47;;;;;;;39.13;19.80;;;;;;;;;;5006734;28;20091;-63
2022/01/29 01:13:13;;;;;;;38.65;19.52;;;;;;;;;;5037949;28;20034;-62
2022/01/29 01:15:39;;;;;;;33.15;18.75;;;;;;;;;;5004848;28;20488;-62
2022/01/29 01:18:05;;;;;;;33.45;17.35;;;;;;;;;;5003594;28;20042;-63
2022/01/29 01:20:31;;;;;;;29.13;16.08;;;;;;;;;;5006685;28;20412;-62
2022/01/29 01:22:57;;;;;;;28.70;16.20;;;;;;;;;;4988666;28;20097;-62
2022/01/29 01:25:23;;;;;;;30.63;16.15;;;;;;;;;;5037594;28;20041;-62
2022/01/29 01:27:50;;;;;;;31.50;17.30;;;;;;;;;;5004345;28;20077;-62
2022/01/29 01:30:17;;;;;;;32.35;19.23;;;;;;;;;;4988576;28;20057;-62
2022/01/29 01:32:43;;;;;;;32.67;17.77;;;;;;;;;;5005005;28;20034;-62
2022/01/29 01:35:21;;;;;;;35.05;18.05;;;;;;;;;;5004087;28;20349;-62
2022/01/29 01:37:56;;;;;;;29.73;14.40;;;;;;;;;;5004586;28;20050;-62
2022/01/29 01:40:23;;;;;;;34.42;15.82;;;;;;;;;;5005433;28;20495;-62
2022/01/29 01:42:51;;;;;;;34.22;17.92;;;;;;;;;;5004900;28;20495;-63
2022/01/29 01:45:17;;;;;;;37.60;17.55;;;;;;;;;;5036853;28;20674;-63
2022/01/29 01:47:43;;;;;;;33.85;18.08;;;;;;;;;;5038017;28;20052;-62
2022/01/29 01:50:10;;;;;;;29.73;15.35;;;;;;;;;;5037122;28;20099;-64
2022/01/29 01:52:36;;;;;;;35.70;18.08;;;;;;;;;;5037785;28;20042;-61
2022/01/29 01:55:02;;;;;;;35.28;15.68;;;;;;;;;;5005912;28;20510;-60
2022/01/29 01:57:28;;;;;;;35.42;18.20;;;;;;;;;;5006565;28;20038;-61
2022/01/29 01:59:54;;;;;;;42.58;18.30;;;;;;;;;;5007889;28;20048;-61
2022/01/29 02:02:21;;;;;;;39.53;18.52;;;;;;;;;;5008034;28;20504;-61
2022/01/29 02:04:47;;;;;;;35.85;17.67;;;;;;;;;;5008507;28;20046;-62
2022/01/29 02:07:14;;;;;;;26.33;13.75;;;;;;;;;;5024150;28;20381;-62
2022/01/29 02:09:40;;;;;;;33.83;16.42;;;;;;;;;;5009047;28;20034;-63
2022/01/29 02:12:08;;;;;;;35.25;17.13;;;;;;;;;;5007589;28;20053;-62
2022/01/29 02:14:35;;;;;;;37.08;17.73;;;;;;;;;;5009480;28;20134;-62
2022/01/29 02:17:01;;;;;;;37.40;16.67;;;;;;;;;;5007884;28;20048;-62
2022/01/29 02:19:27;;;;;;;31.05;16.17;;;;;;;;;;5008096;28;20034;-61
2022/01/29 02:21:54;;;;;;;37.88;16.08;;;;;;;;;;5009365;28;20419;-61
2022/01/29 02:24:20;;;;;;;29.42;14.23;;;;;;;;;;5009005;28;20034;-61
2022/01/29 02:26:48;;;;;;;30.50;16.45;;;;;;;;;;4989272;28;20050;-62
2022/01/29 02:29:14;;;;;;;40.45;17.90;;;;;;;;;;5040855;28;20088;-63
2022/01/29 02:31:52;;;;;;;30.05;11.57;;;;;;;;;;5007671;28;20518;-62
2022/01/29 02:34:19;;;;;;;29.85;14.65;;;;;;;;;;5041135;28;20042;-62
2022/01/29 02:36:46;;;;;;;38.60;16.38;;;;;;;;;;5040842;28;20056;-62
2022/01/29 02:39:13;;;;;;;30.50;14.30;;;;;;;;;;5008395;28;20508;-61
2022/01/29 02:41:42;;;;;;;31.13;15.13;;;;;;;;;;5008846;28;20515;-62
2022/01/29 02:44:09;;;;;;;36.17;15.18;;;;;;;;;;5008886;28;20404;-63
2022/01/29 02:46:48;;;;;;;28.23;14.82;;;;;;;;;;5008884;28;20156;-62
2022/01/29 02:49:21;;;;;;;32.13;14.43;;;;;;;;;;5039686;28;20052;-63
2022/01/29 02:51:48;;;;;;;29.95;13.70;;;;;;;;;;5008327;28;20044;-62
2022/01/29 02:54:14;;;;;;;33.70;14.45;;;;;;;;;;5007339;28;20077;-62
2022/01/29 02:56:41;;;;;;;36.13;16.30;;;;;;;;;;5009085;28;20044;-62
2022/01/29 02:59:07;;;;;;;30.27;12.48;;;;;;;;;;5004838;28;20065;-62
2022/01/29 03:01:34;;;;;;;32.13;13.65;;;;;;;;;;5041007;28;20129;-63
2022/01/29 03:04:00;;;;;;;36.63;15.38;;;;;;;;;;5040428;28;20175;-62
2022/01/29 03:06:26;;;;;;;35.83;13.98;;;;;;;;;;5008755;28;20128;-63
2022/01/29 03:08:52;;;;;;;31.42;14.77;;;;;;;;;;4990572;28;20038;-62
2022/01/29 03:11:22;;;;;;;29.10;14.15;;;;;;;;;;5006571;28;20047;-62
2022/01/29 03:13:48;;;;;;;25.45;12.63;;;;;;;;;;5007269;28;20409;-62
2022/01/29 03:16:14;;;;;;;24.52;12.30;;;;;;;;;;5008815;28;20049;-63
2022/01/29 03:18:40;;;;;;;28.58;13.00;;;;;;;;;;5007849;28;20063;-63
2022/01/29 03:21:06;;;;;;;19.80;9.20;;;;;;;;;;5039479;28;20585;-63
2022/01/29 03:23:33;;;;;;;34.08;13.88;;;;;;;;;;5007046;28;20492;-62
2022/01/29 03:26:00;;;;;;;28.80;12.48;;;;;;;;;;5039632;28;20439;-64
2022/01/29 03:28:26;;;;;;;32.03;14.70;;;;;;;;;;5006605;28;20054;-63
2022/01/29 03:30:52;;;;;;;35.05;13.55;;;;;;;;;;5006389;28;20045;-63
2022/01/29 03:33:18;;;;;;;32.22;14.88;;;;;;;;;;5040163;28;20041;-63
2022/01/29 03:35:44;;;;;;;24.60;12.23;;;;;;;;;;5007818;28;20120;-62
2022/01/29 03:38:10;;;;;;;35.22;16.20;;;;;;;;;;5007462;28;20140;-62
2022/01/29 03:40:36;;;;;;;29.98;15.00;;;;;;;;;;5006959;28;20038;-63
2022/01/29 03:43:07;;;;;;;35.78;16.48;;;;;;;;;;5006213;28;20045;-63
2022/01/29 03:45:33;;;;;;;30.67;16.30;;;;;;;;;;5005558;28;20077;-63
2022/01/29 03:47:59;;;;;;;29.95;15.70;;;;;;;;;;5006310;28;20369;-63
2022/01/29 03:50:26;;;;;;;32.15;14.90;;;;;;;;;;4989566;28;20041;-63
2022/01/29 03:52:52;;;;;;;31.60;14.85;;;;;;;;;;5007744;28;20556;-61
2022/01/29 03:55:18;;;;;;;31.65;15.00;;;;;;;;;;5005939;28;20133;-63
2022/01/29 03:57:44;;;;;;;31.95;17.58;;;;;;;;;;5006472;28;20053;-62
2022/01/29 04:00:10;;;;;;;30.95;15.23;;;;;;;;;;5004698;28;20488;-62
2022/01/29 04:02:36;;;;;;;32.58;15.88;;;;;;;;;;5006393;28;20200;-62
2022/01/29 04:05:03;;;;;;;28.45;15.15;;;;;;;;;;5038916;28;20056;-63
2022/01/29 04:07:29;;;;;;;32.22;15.73;;;;;;;;;;5008046;28;20034;-62
2022/01/29 04:09:55;;;;;;;31.67;15.57;;;;;;;;;;5006951;28;20507;-62
2022/01/29 04:12:24;;;;;;;28.80;15.60;;;;;;;;;;5007625;28;20096;-63
2022/01/29 04:14:53;;;;;;;32.95;16.80;;;;;;;;;;5006479;28;20049;-62
2022/01/29 04:17:19;;;;;;;32.92;15.95;;;;;;;;;;5038990;28;20563;-62
2022/01/29 04:19:45;;;;;;;29.67;15.27;;;;;;;;;;5022649;28;20053;-63
2022/01/29 04:22:11;;;;;;;28.70;14.63;;;;;;;;;;5006555;28;20081;-62
2022/01/29 04:24:37;;;;;;;23.13;11.85;;;;;;;;;;5037855;28;20046;-63
2022/01/29 04:27:10;;;;;;;28.30;15.98;;;;;;;;;;5005696;28;20092;-63
2022/01/29 04:29:51;;;;;;;31.25;16.33;;;;;;;;;;5006203;28;20046;-62
2022/01/29 04:32:21;;;;;;;28.73;16.33;;;;;;;;;;5022269;28;20046;-62
2022/01/29 04:34:47;;;;;;;34.30;18.10;;;;;;;;;;4989453;28;20479;-62
2022/01/29 04:37:13;;;;;;;42.38;18.70;;;;;;;;;;4988189;28;20049;-62
2022/01/29 04:39:39;;;;;;;29.00;16.40;;;;;;;;;;5005067;28;20049;-62
2022/01/29 04:42:05;;;;;;;32.10;18.67;;;;;;;;;;4988395;28;20472;-63
2022/01/29 04:44:31;;;;;;;37.92;19.35;;;;;;;;;;5022679;28;20408;-62
2022/01/29 04:46:57;;;;;;;33.70;18.27;;;;;;;;;;5005858;28;20038;-62
2022/01/29 04:49:23;;;;;;;34.00;18.80;;;;;;;;;;5005422;28;20377;-62
2022/01/29 04:51:49;;;;;;;32.85;17.73;;;;;;;;;;5038986;28;20400;-62
2022/01/29 04:54:15;;;;;;;35.90;19.42;;;;;;;;;;5021107;28;20103;-62
2022/01/29 04:56:41;;;;;;;32.05;18.52;;;;;;;;;;5021181;28;20042;-63
2022/01/29 04:59:07;;;;;;;35.00;19.13;;;;;;;;;;5005314;28;20056;-62
2022/01/29 05:01:33;;;;;;;26.80;14.80;;;;;;;;;;5005999;28;20532;-63
2022/01/29 05:03:59;;;;;;;36.33;19.15;;;;;;;;;;5005497;28;20388;-63
2022/01/29 05:06:26;;;;;;;34.00;16.75;;;;;;;;;;5038380;28;20077;-62
2022/01/29 05:08:52;;;;;;;32.95;17.60;;;;;;;;;;5005448;28;20042;-62
2022/01/29 05:11:18;;;;;;;34.15;18.67;;;;;;;;;;4988483;28;20069;-61
2022/01/29 05:13:44;;;;;;;30.23;12.95;;;;;;;;;;5003241;28;20038;-62
2022/01/29 05:27:05;;;;;;;28.30;17.20;;;;;;;;;;5005742;28;20042;-61
2022/01/29 05:29:32;;;;;;;31.23;16.52;;;;;;;;;;5004998;28;20060;-62
2022/01/29 05:32:02;;;;;;;25.85;13.10;;;;;;;;;;5006800;28;20419;-62
2022/01/29 05:34:28;;;;;;;30.55;18.65;;;;;;;;;;5007518;28;20057;-63
2022/01/29 05:36:55;;;;;;;28.85;14.70;;;;;;;;;;5010963;28;20038;-62
2022/01/29 05:39:21;;;;;;;31.60;17.05;;;;;;;;;;5010409;28;20061;-61
2022/01/29 05:41:48;;;;;;;27.00;18.02;;;;;;;;;;5010333;28;20081;-61
2022/01/29 05:44:14;;;;;;;25.73;17.02;;;;;;;;;;5010350;28;20042;-60
2022/01/29 05:46:40;;;;;;;24.75;14.90;;;;;;;;;;5042909;28;20112;-60
2022/01/29 05:49:06;;;;;;;22.00;12.48;;;;;;;;;;5010967;28;20121;-60
2022/01/29 05:51:32;;;;;;;21.83;13.50;;;;;;;;;;5009435;28;20044;-61
2022/01/29 05:53:59;;;;;;;35.67;19.08;;;;;;;;;;5010431;28;20069;-61
2022/01/29 05:56:25;;;;;;;30.50;17.27;;;;;;;;;;5010413;28;20336;-61
2022/01/29 05:58:52;;;;;;;33.47;19.08;;;;;;;;;;5010313;28;20112;-61
2022/01/29 06:01:18;;;;;;;31.35;19.83;;;;;;;;;;5011056;28;20404;-61
2022/01/29 06:03:44;;;;;;;26.15;15.73;;;;;;;;;;5042615;28;20069;-62
2022/01/29 06:06:10;;;;;;;31.33;16.83;;;;;;;;;;5008749;28;20145;-61
2022/01/29 06:08:36;;;;;;;31.20;17.80;;;;;;;;;;5010379;28;20056;-62
2022/01/29 06:11:02;;;;;;;34.38;20.38;;;;;;;;;;5008495;28;20077;-62
2022/01/29 06:13:28;;;;;;;31.25;17.92;;;;;;;;;;5010241;28;20383;-61
2022/01/29 06:15:54;;;;;;;32.15;19.58;;;;;;;;;;5010197;28;20042;-61
2022/01/29 06:18:22;;;;;;;32.55;19.25;;;;;;;;;;4993246;28;20050;-62
2022/01/29 06:20:49;;;;;;;19.70;13.00;;;;;;;;;;5009187;28;20467;-61
2022/01/29 06:23:17;;;;;;;26.92;15.98;;;;;;;;;;5009098;28;20042;-61
2022/01/29 06:25:43;;;;;;;27.75;17.50;;;;;;;;;;5009841;28;20049;-61
2022/01/29 06:28:09;;;;;;;23.75;14.23;;;;;;;;;;5009055;28;20085;-62
2022/01/29 06:30:36;;;;;;;34.40;18.80;;;;;;;;;;5009675;28;20053;-61
2022/01/29 06:33:08;;;;;;;34.80;17.67;;;;;;;;;;5008947;28;20049;-61
2022/01/29 06:35:35;;;;;;;30.42;19.58;;;;;;;;;;5008991;28;20126;-61
2022/01/29 06:38:01;;;;;;;39.63;19.15;;;;;;;;;;5008894;28;20073;-61
2022/01/29 06:40:27;;;;;;;29.88;19.98;;;;;;;;;;4992064;28;20077;-61
2022/01/29 06:42:53;;;;;;;33.70;21.00;;;;;;;;;;5009610;28;21876;-62
2022/01/29 06:45:19;;;;;;;32.10;19.27;;;;;;;;;;5008434;28;20092;-61
2022/01/29 06:47:45;;;;;;;28.60;17.75;;;;;;;;;;4991867;28;20500;-62
2022/01/29 06:50:11;;;;;;;26.63;14.70;;;;;;;;;;5007290;28;20150;-63
2022/01/29 06:52:37;;;;;;;28.98;18.65;;;;;;;;;;5040661;28;20483;-62
2022/01/29 06:55:03;;;;;;;29.80;18.85;;;;;;;;;;5007568;28;20496;-63
2022/01/29 06:57:29;;;;;;;22.65;13.68;;;;;;;;;;5007006;28;20045;-62
2022/01/29 06:59:55;;;;;;;26.58;16.98;;;;;;;;;;5040486;28;20566;-63
2022/01/29 07:02:21;;;;;;;23.73;17.73;;;;;;;;;;5040909;28;20483;-62
2022/01/29 07:04:47;;;;;;;25.80;14.70;;;;;;;;;;5007658;28;20046;-62
2022/01/29 07:07:14;;;;;;;26.33;16.27;;;;;;;;;;5023772;28;20054;-62
2022/01/29 07:09:40;;;;;;;24.45;13.57;;;;;;;;;;5008900;28;20504;-62
2022/01/29 07:12:10;;;;;;;24.80;17.38;;;;;;;;;;5023103;28;20042;-62
2022/01/29 07:14:39;;;;;;;22.42;14.15;;;;;;;;;;5008581;28;20045;-64
2022/01/29 07:17:09;;;;;;;24.52;15.15;;;;;;;;;;5007369;28;20050;-62
2022/01/29 07:19:35;;;;;;;26.17;18.05;;;;;;;;;;5040577;28;20054;-62
2022/01/29 07:22:01;;;;;;;33.10;19.50;;;;;;;;;;5007434;28;20038;-63
2022/01/29 07:24:27;;;;;;;30.23;17.75;;;;;;;;;;5008316;28;20128;-62
2022/01/29 07:26:53;;;;;;;29.33;18.20;;;;;;;;;;5006166;28;20045;-63
2022/01/29 07:29:19;;;;;;;27.10;16.58;;;;;;;;;;5006625;28;20054;-62
2022/01/29 07:31:46;;;;;;;28.38;17.55;;;;;;;;;;5040083;28;20046;-62
2022/01/29 07:34:12;;;;;;;25.65;17.35;;;;;;;;;;5008771;28;20387;-63
2022/01/29 07:36:38;;;;;;;24.85;17.48;;;;;;;;;;5007225;28;20049;-63
2022/01/29 07:39:04;;;;;;;29.88;19.20;;;;;;;;;;5040156;28;20088;-63
2022/01/29 07:41:30;;;;;;;27.30;15.65;;;;;;;;;;5040811;28;20408;-63
2022/01/29 07:43:56;;;;;;;31.25;19.00;;;;;;;;;;5040140;28;20034;-62
2022/01/29 07:46:22;;;;;;;29.08;18.63;;;;;;;;;;5009855;28;20469;-62
2022/01/29 07:48:48;;;;;;;28.38;19.50;;;;;;;;;;5007504;28;20526;-62
2022/01/29 07:51:14;;;;;;;26.08;16.20;;;;;;;;;;5008499;28;20408;-62
2022/01/29 07:53:40;;;;;;;27.73;19.02;;;;;;;;;;5009032;28;20145;-62
2022/01/29 07:56:06;;;;;;;30.20;19.00;;;;;;;;;;5005644;28;20037;-63
2022/01/29 07:58:32;;;;;;;29.05;15.07;;;;;;;;;;5040437;28;20080;-63
2022/01/29 08:00:58;;;;;;;24.80;14.55;;;;;;;;;;5007365;28;20067;-63
2022/01/29 08:03:24;;;;;;;26.55;15.43;;;;;;;;;;5039810;28;20037;-64
2022/01/29 08:05:50;;;;;;;26.58;16.13;;;;;;;;;;5008246;28;20042;-62
2022/01/29 08:08:16;;;;;;;24.77;16.88;;;;;;;;;;5040395;28;20432;-63
2022/01/29 08:10:42;;;;;;;28.75;18.40;;;;;;;;;;5040282;28;20499;-63
2022/01/29 08:13:08;;;;;;;28.63;17.60;;;;;;;;;;5005863;28;20429;-62
2022/01/29 08:15:34;;;;;;;23.15;16.05;;;;;;;;;;5005627;28;20487;-62
2022/01/29 08:18:00;;;;;;;31.92;18.38;;;;;;;;;;5006755;28;20815;-63
2022/01/29 08:20:26;;;;;;;28.13;18.48;;;;;;;;;;5006358;28;20500;-61
2022/01/29 08:22:52;;;;;;;26.55;14.55;;;;;;;;;;5009218;28;20038;-62
2022/01/29 08:25:18;;;;;;;24.80;15.88;;;;;;;;;;5005560;28;20046;-63
2022/01/29 08:27:45;;;;;;;25.13;14.38;;;;;;;;;;5007147;28;20044;-62
2022/01/29 08:30:11;;;;;;;22.55;14.85;;;;;;;;;;5021140;28;20054;-63
2022/01/29 08:32:41;;;;;;;27.00;15.23;;;;;;;;;;5006315;28;20131;-62
2022/01/29 08:35:13;;;;;;;18.95;13.32;;;;;;;;;;5023878;28;20065;-63
2022/01/29 08:37:39;;;;;;;22.42;13.90;;;;;;;;;;5039154;28;20139;-63
2022/01/29 08:40:05;;;;;;;21.70;12.77;;;;;;;;;;5038257;28;20085;-62
2022/01/29 08:42:31;;;;;;;20.95;13.50;;;;;;;;;;5007705;28;20034;-63
2022/01/29 08:44:57;;;;;;;18.77;10.48;;;;;;;;;;5041323;28;20061;-62
2022/01/29 08:47:23;;;;;;;23.13;11.35;;;;;;;;;;5041361;28;20041;-63
2022/01/29 08:49:50;;;;;;;17.08;10.10;;;;;;;;;;5041054;28;20132;-63
2022/01/29 08:52:16;;;;;;;16.20;9.13;;;;;;;;;;5010096;28;20046;-63
2022/01/29 08:54:42;;;;;;;19.95;10.00;;;;;;;;;;5009697;28;20184;-62
2022/01/29 08:57:08;;;;;;;14.25;8.35;;;;;;;;;;5041370;28;20053;-62
2022/01/29 08:59:34;;;;;;;15.02;8.48;;;;;;;;;;5041339;28;20046;-63
2022/01/29 09:02:00;;;;;;;17.50;8.98;;;;;;;;;;5041202;28;20406;-62
2022/01/29 09:04:26;;;;;;;12.82;6.85;;;;;;;;;;5040933;28;20476;-62
2022/01/29 09:06:52;;;;;;;12.95;7.10;;;;;;;;;;5009692;28;20042;-62
2022/01/29 09:09:23;;;;;;;11.65;6.32;;;;;;;;;;5043765;28;20049;-62
2022/01/29 09:11:51;;;;;;;11.05;5.97;;;;;;;;;;5013676;28;20566;-62
2022/01/29 09:14:17;;;;;;;17.52;7.32;;;;;;;;;;5012237;28;20482;-63
2022/01/29 09:16:43;;;;;;;10.45;4.72;;;;;;;;;;5013366;28;20124;-62
2022/01/29 09:19:09;;;;;;;12.82;6.10;;;;;;;;;;5045143;28;20092;-63
2022/01/29 09:21:35;;;;;;;12.50;6.25;;;;;;;;;;5013284;28;20451;-62
2022/01/29 09:24:01;;;;;;;16.00;6.18;;;;;;;;;;5012938;28;20551;-61
2022/01/29 09:26:27;;;;;;;11.35;4.68;;;;;;;;;;5028533;28;20129;-62
2022/01/29 09:28:53;;;;;;;11.65;5.60;;;;;;;;;;5044928;28;20447;-62
2022/01/29 09:31:22;;;;;;;10.55;4.78;;;;;;;;;;5044952;28;20057;-61
2022/01/29 09:33:48;;;;;;;13.50;5.30;;;;;;;;;;5044967;28;20380;-61
2022/01/29 09:36:14;;;;;;;11.38;5.00;;;;;;;;;;5012958;28;20133;-62
2022/01/29 09:38:41;;;;;;;6.85;2.88;;;;;;;;;;5013198;28;20554;-62
2022/01/29 09:41:08;;;;;;;9.27;2.70;;;;;;;;;;5013034;28;20038;-63
2022/01/29 09:43:34;;;;;;;15.05;4.32;;;;;;;;;;5044903;28;20046;-62
2022/01/29 09:46:00;;;;;;;12.40;4.38;;;;;;;;;;5011135;28;20050;-62
2022/01/29 09:48:29;;;;;;;9.88;4.25;;;;;;;;;;5012836;28;20361;-61
2022/01/29 09:50:56;;;;;;;10.55;3.83;;;;;;;;;;5026985;28;20045;-63
2022/01/29 09:53:22;;;;;;;12.73;3.40;;;;;;;;;;5012586;28;20048;-62
2022/01/29 09:55:49;;;;;;;10.10;3.78;;;;;;;;;;5011047;28;20053;-62
2022/01/29 09:58:15;;;;;;;11.85;4.15;;;;;;;;;;5012704;28;20049;-63
2022/01/29 10:00:42;;;;;;;11.40;4.13;;;;;;;;;;5043996;28;20038;-63
2022/01/29 10:03:11;;;;;;;9.82;3.10;;;;;;;;;;5011194;28;20411;-62
2022/01/29 10:05:37;;;;;;;10.90;3.80;;;;;;;;;;5044051;28;20050;-63
2022/01/29 10:08:04;;;;;;;10.27;4.05;;;;;;;;;;5010794;28;20496;-63
2022/01/29 10:10:37;;;;;;;9.45;2.40;;;;;;;;;;5044175;28;20504;-62
2022/01/29 10:13:20;;;;;;;7.53;2.97;;;;;;;;;;5044330;28;20607;-62
2022/01/29 10:15:46;;;;;;;10.32;2.35;;;;;;;;;;5027106;28;20049;-62
2022/01/29 10:18:19;;;;;;;10.18;3.00;;;;;;;;;;5043833;28;20046;-62
2022/01/29 10:20:45;;;;;;;5.05;2.03;;;;;;;;;;5010307;28;20116;-62
2022/01/29 10:23:12;;;;;;;7.50;2.60;;;;;;;;;;5044418;28;20508;-63
2022/01/29 10:25:41;;;;;;;8.65;2.50;;;;;;;;;;5043762;28;20076;-63
2022/01/29 10:28:15;;;;;;;6.53;2.15;;;;;;;;;;5042090;28;20046;-63
2022/01/29 10:30:41;;;;;;;;;;;;;;;;;;5043955;28;20081;-62
2022/01/29 10:33:19;;;;;;;6.28;1.10;;;;;;;;;;5043852;28;19957;-61
2022/01/29 10:35:46;;;;;;;9.25;1.85;;;;;;;;;;5012038;28;20496;-62
2022/01/29 10:38:12;;;;;;;7.45;1.60;;;;;;;;;;5043581;28;20125;-62
2022/01/29 10:40:39;;;;;;;7.93;1.45;;;;;;;;;;5026997;28;20260;-63
2022/01/29 10:43:09;;;;;;;5.75;1.05;;;;;;;;;;5043620;28;20053;-62
2022/01/29 10:45:36;;;;;;;8.40;1.30;;;;;;;;;;5009865;28;20046;-63
2022/01/29 10:48:04;;;;;;;7.60;1.40;;;;;;;;;;5043367;28;20049;-63
2022/01/29 10:50:31;;;;;;;8.65;1.25;;;;;;;;;;5043123;28;20046;-62
2022/01/29 10:52:57;;;;;;;8.57;1.20;;;;;;;;;;5027116;28;20431;-62
2022/01/29 10:55:23;;;;;;;11.90;1.60;;;;;;;;;;5011619;28;20535;-62
2022/01/29 10:57:49;;;;;;;7.70;1.00;;;;;;;;;;5043514;28;20053;-61
2022/01/29 11:00:18;;;;;;;7.40;1.48;;;;;;;;;;5043040;28;20053;-62
2022/01/29 11:02:45;;;;;;;10.15;1.42;;;;;;;;;;5026766;28;20046;-62
2022/01/29 11:05:13;;;;;;;5.97;0.90;;;;;;;;;;5043209;28;20057;-63
2022/01/29 11:07:41;;;;;;;9.20;1.15;;;;;;;;;;5026943;28;20068;-63
2022/01/29 11:10:08;;;;;;;8.30;1.13;;;;;;;;;;5043527;28;20296;-61
2022/01/29 11:12:36;;;;;;;8.10;1.10;;;;;;;;;;5011961;28;20033;-60
2022/01/29 11:15:03;;;;;;;8.27;1.00;;;;;;;;;;5011994;28;20049;-60
2022/01/29 11:17:30;;;;;;;6.55;1.05;;;;;;;;;;5011941;28;20045;-61
2022/01/29 11:19:57;;;;;;;9.68;1.40;;;;;;;;;;5043229;28;20057;-61
2022/01/29 11:22:29;;;;;;;5.72;0.70;;;;;;;;;;5011427;28;20036;-61
2022/01/29 11:25:00;;;;;;;5.40;0.77;;;;;;;;;;5026939;28;20057;-60
2022/01/29 11:27:26;;;;;;;10.02;1.23;;;;;;;;;;5011490;28;20042;-60
2022/01/29 11:29:59;;;;;;;6.75;0.90;;;;;;;;;;5011116;28;20049;-61
2022/01/29 11:32:27;;;;;;;;;;;;;;;;;;5043049;28;20053;-61
2022/01/29 11:35:12;;;;;;;4.72;0.68;;;;;;;;;;5043132;28;19917;-61
2022/01/29 11:37:39;;;;;;;6.95;0.75;;;;;;;;;;5011669;28;20492;-61
2022/01/29 11:40:16;;;;;;;4.72;0.73;;;;;;;;;;5043306;28;20432;-61
2022/01/29 11:43:06;;;;;;;8.63;0.68;;;;;;;;;;5011244;28;20048;-61
2022/01/29 11:45:42;;;;;;;8.45;0.90;;;;;;;;;;5011225;28;20053;-61
2022/01/29 11:48:28;;;;;;;7.32;0.82;;;;;;;;;;5009673;28;20334;-61
2022/01/29 11:51:07;;;;;;;5.55;0.50;;;;;;;;;;5010978;28;20137;-61
2022/01/29 11:53:46;;;;;;;4.32;0.77;;;;;;;;;;5042782;28;20048;-61
2022/01/29 11:56:29;;;;;;;8.85;1.10;;;;;;;;;;5026204;28;20088;-61
2022/01/29 11:59:13;;;;;;;5.50;0.88;;;;;;;;;;5010864;28;20268;-61
2022/01/29 12:01:40;;;;;;;6.32;0.90;;;;;;;;;;5010612;28;20104;-61
2022/01/29 12:04:06;;;;;;;7.82;0.73;;;;;;;;;;5010481;28;20054;-60
2022/01/29 12:06:35;;;;;;;7.13;0.85;;;;;;;;;;5010713;28;20408;-62
2022/01/29 12:09:07;;;;;;;6.90;0.90;;;;;;;;;;5011114;28;20483;-61
2022/01/29 12:11:34;;;;;;;5.90;1.10;;;;;;;;;;5010704;28;20103;-61
2022/01/29 12:14:16;;;;;;;3.95;0.70;;;;;;;;;;5009273;28;20038;-61
2022/01/29 12:16:49;;;;;;;6.83;0.90;;;;;;;;;;5010585;28;20068;-60
2022/01/29 12:19:34;;;;;;;6.38;1.00;;;;;;;;;;5025940;28;20068;-61
2022/01/29 12:22:01;;;;;;;9.63;1.20;;;;;;;;;;5025681;28;20061;-61
2022/01/29 12:24:27;;;;;;;10.13;0.90;;;;;;;;;;5041768;28;20050;-61
2022/01/29 12:26:57;;;;;;;4.72;0.70;;;;;;;;;;5010401;28;20061;-61
2022/01/29 12:29:23;;;;;;;4.85;0.73;;;;;;;;;;5009869;28;20061;-60
2022/01/29 12:31:53;;;;;;;4.25;0.63;;;;;;;;;;5009665;28;20073;-61
2022/01/29 12:34:21;;;;;;;7.10;0.60;;;;;;;;;;5009754;28;20033;-60
2022/01/29 12:36:47;;;;;;;3.15;0.55;;;;;;;;;;5009661;28;20122;-61
2022/01/29 12:39:23;;;;;;;7.40;0.70;;;;;;;;;;5009900;28;20046;-60
2022/01/29 12:42:04;;;;;;;7.85;1.00;;;;;;;;;;5009430;28;20133;-60
2022/01/29 12:44:30;;;;;;;10.02;0.93;;;;;;;;;;5037355;28;20128;-61
2022/01/29 12:46:56;;;;;;;4.18;0.50;;;;;;;;;;5040192;28;20041;-61
2022/01/29 12:49:22;;;;;;;6.18;0.70;;;;;;;;;;5021587;28;20180;-62
2022/01/29 12:51:51;;;;;;;6.40;0.65;;;;;;;;;;5011774;28;20408;-62
2022/01/29 12:54:17;;;;;;;11.52;0.90;;;;;;;;;;5007861;28;20032;-61
2022/01/29 12:56:43;;;;;;;6.50;0.90;;;;;;;;;;5006917;28;20102;-62
2022/01/29 12:59:11;;;;;;;5.78;0.50;;;;;;;;;;5008481;28;20128;-61
2022/01/29 13:01:38;;;;;;;5.90;0.68;;;;;;;;;;5006808;28;20080;-62
2022/01/29 13:04:16;;;;;;;8.20;0.80;;;;;;;;;;5010323;28;20033;-62
2022/01/29 13:06:42;;;;;;;12.48;1.40;;;;;;;;;;5006583;28;20046;-61
2022/01/29 13:09:18;;;;;;;10.05;1.17;;;;;;;;;;5039598;28;20042;-61
2022/01/29 13:11:45;;;;;;;9.63;1.08;;;;;;;;;;5008164;28;20065;-63
2022/01/29 13:14:12;;;;;;;8.63;0.77;;;;;;;;;;5039348;28;20126;-61
2022/01/29 13:16:38;;;;;;;10.93;1.38;;;;;;;;;;5006814;28;20045;-61
2022/01/29 13:19:05;;;;;;;13.13;1.45;;;;;;;;;;5008828;28;20050;-62
2022/01/29 13:21:33;;;;;;;10.02;1.10;;;;;;;;;;5009843;28;20077;-61
2022/01/29 13:24:00;;;;;;;9.23;1.23;;;;;;;;;;5010080;28;20052;-61
2022/01/29 13:26:29;;;;;;;7.78;1.00;;;;;;;;;;5042034;28;20137;-60
2022/01/29 13:29:02;;;;;;;7.30;1.25;;;;;;;;;;5041603;28;20622;-61
2022/01/29 13:31:29;;;;;;;9.88;1.33;;;;;;;;;;5010333;28;20447;-61
2022/01/29 13:33:56;;;;;;;9.10;0.90;;;;;;;;;;5009989;28;20044;-62
2022/01/29 13:36:31;;;;;;;7.63;1.15;;;;;;;;;;5041295;28;20046;-61
2022/01/29 13:39:07;;;;;;;7.00;0.90;;;;;;;;;;5041471;28;20060;-62
2022/01/29 13:41:33;;;;;;;6.80;0.75;;;;;;;;;;5025009;28;20396;-60
2022/01/29 13:44:08;;;;;;;4.53;0.43;;;;;;;;;;5024333;28;20042;-62
2022/01/29 13:46:34;;;;;;;4.75;0.68;;;;;;;;;;5009381;28;20049;-62
2022/01/29 13:49:02;;;;;;;6.95;0.77;;;;;;;;;;5024549;28;20038;-62
2022/01/29 13:51:42;;;;;;;6.82;0.73;;;;;;;;;;5041692;28;20061;-61
2022/01/29 13:54:09;;;;;;;6.38;0.85;;;;;;;;;;5010157;28;20080;-61
2022/01/29 13:56:39;;;;;;;9.18;0.85;;;;;;;;;;5044624;28;20050;-61
2022/01/29 13:59:06;;;;;;;9.55;1.42;;;;;;;;;;5013162;28;20131;-60
2022/01/29 14:01:50;;;;;;;11.45;1.45;;;;;;;;;;5012993;28;20088;-61
2022/01/29 14:04:29;;;;;;;8.52;0.80;;;;;;;;;;5045210;28;20054;-61
2022/01/29 14:07:23;;;;;;;8.40;0.65;;;;;;;;;;5044667;28;20132;-60
2022/01/29 14:09:52;;;;;;;;;;;;;;;;;;5009709;28;20085;-61
2022/01/29 14:12:22;;;;;;;9.13;0.85;;;;;;;;;;5011635;28;19964;-61
2022/01/29 14:14:49;;;;;;;2.40;0.50;;;;;;;;;;5044380;28;20502;-60
2022/01/29 14:17:29;;;;;;;8.35;1.00;;;;;;;;;;5044468;28;20096;-61
2022/01/29 14:19:59;;;;;;;7.82;0.80;;;;;;;;;;5012096;28;20046;-61
2022/01/29 14:22:28;;;;;;;14.52;0.85;;;;;;;;;;5012730;28;20104;-62
2022/01/29 14:24:54;;;;;;;7.53;0.70;;;;;;;;;;5044666;28;20042;-61
2022/01/29 14:27:21;;;;;;;6.82;0.73;;;;;;;;;;5028156;28;20041;-61
2022/01/29 14:29:47;;;;;;;4.72;0.98;;;;;;;;;;5012184;28;20060;-60
2022/01/29 14:32:17;;;;;;;7.00;0.65;;;;;;;;;;5028009;28;20053;-61
2022/01/29 14:34:44;;;;;;;5.85;1.40;;;;;;;;;;5027423;28;20121;-61
2022/01/29 14:37:10;;;;;;;10.80;0.98;;;;;;;;;;5012568;28;20069;-61
2022/01/29 14:39:37;;;;;;;7.63;0.88;;;;;;;;;;5027330;28;20048;-61